Time;durP1;ratioP1;P1;durP2;ratioP2;P2;SDS_P1;SDS_P2;PMS_P1;PMS_P2;Temp;Humidity;BMP_temperature;BMP_pressure;BME280_temperature;BME280_humidity;BME280_pressure;Samples;Min_cycle;Max_cycle;Signal;HPM_P1;HPM_P2
2021/11/03 00:00:34;;;;;;;85.38;32.13;;;;;;;8.60;85.52;99753.41;5050680;28;20042;-21
2021/11/03 00:03:03;;;;;;;84.43;29.13;;;;;;;8.53;85.23;99754.47;5069347;28;20020;-20
2021/11/03 00:05:28;;;;;;;88.97;30.30;;;;;;;8.95;84.52;99760.13;5068917;28;20029;-21
2021/11/03 00:07:54;;;;;;;74.90;28.92;;;;;;;8.71;84.68;99759.06;5068581;28;20382;-21
2021/11/03 00:10:20;;;;;;;78.50;28.73;;;;;;;8.72;85.30;99753.50;5034424;28;20035;-20
2021/11/03 00:12:45;;;;;;;73.47;29.45;;;;;;;8.67;85.46;99763.19;5034363;28;20111;-20
2021/11/03 00:15:11;;;;;;;79.10;29.25;;;;;;;8.57;86.29;99753.00;5068635;28;20047;-20
2021/11/03 00:17:37;;;;;;;101.75;32.80;;;;;;;8.98;85.18;99781.78;5068714;28;20094;-20
2021/11/03 00:20:04;;;;;;;86.97;28.10;;;;;;;8.64;85.92;99767.06;5068288;28;20541;-20
2021/11/03 00:22:30;;;;;;;89.60;28.40;;;;;;;8.45;86.42;99782.91;5068506;28;20032;-20
2021/11/03 00:24:55;;;;;;;102.18;27.75;;;;;;;8.39;87.17;99782.91;5068531;28;20413;-21
2021/11/03 00:27:20;;;;;;;101.03;27.88;;;;;;;7.99;89.04;99793.69;5068590;28;20058;-21
2021/11/03 00:29:46;;;;;;;121.72;28.55;;;;;;;7.94;89.69;99794.28;5050050;28;20033;-20
2021/11/03 00:32:13;;;;;;;127.07;30.65;;;;;;;8.04;88.73;99781.41;5068521;28;20404;-20
2021/11/03 00:34:38;;;;;;;71.22;25.40;;;;;;;7.91;89.21;99785.94;5068580;28;20043;-21
2021/11/03 00:37:04;;;;;;;104.25;28.83;;;;;;;7.96;90.07;99805.53;5068569;28;20028;-22
2021/11/03 00:39:29;;;;;;;67.65;26.05;;;;;;;7.89;89.57;99803.94;5068551;28;20037;-21
2021/11/03 00:41:57;;;;;;;108.65;31.75;;;;;;;8.04;90.11;99802.66;5068337;28;20052;-20
2021/11/03 00:44:22;;;;;;;94.63;29.75;;;;;;;8.02;89.14;99791.41;5050412;28;20036;-21
2021/11/03 00:46:48;;;;;;;86.97;27.23;;;;;;;7.61;90.89;99797.00;5068201;28;20041;-21
2021/11/03 00:49:14;;;;;;;69.70;26.02;;;;;;;7.48;91.90;99803.16;5050513;28;20535;-21
2021/11/03 00:51:39;;;;;;;85.95;24.63;;;;;;;7.43;92.26;99803.75;5068325;28;20416;-20
2021/11/03 00:54:05;;;;;;;105.85;27.92;;;;;;;7.35;93.31;99803.16;5067834;28;20086;-20
2021/11/03 00:56:30;;;;;;;64.78;23.17;;;;;;;7.31;92.80;99807.22;5068273;28;20087;-21
2021/11/03 00:58:56;;;;;;;77.28;25.60;;;;;;;7.29;93.18;99804.78;5067816;28;20028;-21
2021/11/03 01:01:21;;;;;;;83.43;27.20;;;;;;;7.21;93.66;99795.19;5068419;28;20032;-20
2021/11/03 01:03:47;;;;;;;67.93;24.35;;;;;;;7.08;94.36;99808.44;5067821;28;20047;-21
2021/11/03 01:06:13;;;;;;;71.78;25.63;;;;;;;7.09;94.37;99802.13;5068064;28;20043;-20
2021/11/03 01:08:38;;;;;;;127.35;30.13;;;;;;;7.24;93.55;99810.69;5067948;28;20035;-20
2021/11/03 01:11:04;;;;;;;165.43;30.55;;;;;;;7.55;92.25;99814.56;5067961;28;20032;-20
2021/11/03 01:13:29;;;;;;;58.15;24.33;;;;;;;7.41;91.46;99797.03;5067838;28;20028;-20
2021/11/03 01:15:58;;;;;;;77.70;25.65;;;;;;;7.52;91.30;99815.00;5067623;28;20500;-22
2021/11/03 01:18:30;;;;;;;67.60;25.83;;;;;;;7.61;91.38;99819.06;5050478;28;20020;-20
2021/11/03 01:20:56;;;;;;;112.93;29.48;;;;;;;7.88;89.53;99821.69;5050093;28;20060;-20
2021/11/03 01:23:21;;;;;;;77.50;24.13;;;;;;;7.85;89.91;99811.47;5067864;28;20035;-20
2021/11/03 01:25:47;;;;;;;85.35;25.77;;;;;;;8.04;89.02;99809.81;5067616;28;20493;-20
2021/11/03 01:28:12;;;;;;;106.05;27.92;;;;;;;8.38;88.01;99821.97;5067807;28;20040;-20
2021/11/03 01:30:38;;;;;;;115.75;24.33;;;;;;;8.54;87.36;99827.84;5067808;28;20032;-21
2021/11/03 01:33:04;;;;;;;122.35;26.38;;;;;;;8.46;86.99;99839.53;5067725;28;20024;-21
2021/11/03 01:35:29;;;;;;;80.68;23.77;;;;;;;8.44;86.18;99813.16;5068217;28;20032;-21
2021/11/03 01:37:56;;;;;;;107.53;25.80;;;;;;;8.60;85.47;99813.69;5067436;28;20056;-20
2021/11/03 01:40:24;;;;;;;95.25;24.30;;;;;;;8.39;86.94;99841.38;5067954;28;20036;-21
2021/11/03 01:42:49;;;;;;;87.72;23.35;;;;;;;8.42;86.73;99844.47;5067707;28;20029;-21
2021/11/03 01:45:16;;;;;;;58.05;20.88;;;;;;;8.61;85.78;99849.91;5067836;28;20404;-21
2021/11/03 01:47:43;;;;;;;79.68;21.35;;;;;;;8.67;85.26;99857.03;5067278;28;20500;-21
2021/11/03 01:50:22;;;;;;;49.55;21.75;;;;;;;8.42;85.57;99862.25;5067801;28;20032;-20
2021/11/03 01:52:49;;;;;;;82.00;22.95;;;;;;;8.47;85.43;99870.41;5049328;28;20033;-20
2021/11/03 01:55:15;;;;;;;53.57;20.07;;;;;;;8.02;87.31;99867.63;5049689;28;20131;-21
2021/11/03 01:57:43;;;;;;;59.72;20.60;;;;;;;8.32;86.66;99865.31;5049500;28;20035;-20
2021/11/03 02:00:15;;;;;;;44.97;19.40;;;;;;;8.24;86.08;99833.66;5049737;28;20449;-20
2021/11/03 02:02:41;;;;;;;46.70;19.98;;;;;;;8.45;85.29;99841.38;5050429;28;20208;-22
2021/11/03 02:05:08;;;;;;;37.33;20.00;;;;;;;8.17;86.02;99838.16;5033215;28;20469;-21
2021/11/03 02:07:33;;;;;;;77.82;22.33;;;;;;;7.90;88.47;99848.84;5049599;28;20060;-21
2021/11/03 02:09:59;;;;;;;63.55;21.52;;;;;;;7.77;89.26;99859.47;5032685;28;20082;-20
2021/11/03 02:12:26;;;;;;;49.95;19.85;;;;;;;7.62;90.53;99855.22;5070553;28;20085;-20
2021/11/03 02:14:52;;;;;;;95.63;22.50;;;;;;;7.94;89.51;99855.38;5070925;28;20025;-21
2021/11/03 02:17:18;;;;;;;58.78;21.85;;;;;;;8.27;87.27;99843.03;5053057;28;20759;-21
2021/11/03 02:19:44;;;;;;;74.80;25.17;;;;;;;8.38;86.23;99835.25;5070595;28;20082;-21
2021/11/03 02:22:38;;;;;;;64.75;23.77;;;;;;;8.68;86.05;99858.66;5053204;28;20025;-21
2021/11/03 02:25:09;;;;;;;79.13;24.85;;;;;;;8.89;84.65;99864.69;5037599;28;20042;-20
2021/11/03 02:27:37;;;;;;;68.30;20.08;;;;;;;8.82;84.04;99862.88;5053006;28;20055;-20
2021/11/03 02:30:04;;;;;;;127.72;24.73;;;;;;;8.98;83.91;99868.75;5036311;28;20032;-20
2021/11/03 02:32:30;;;;;;;46.22;18.58;;;;;;;8.27;84.98;99854.47;5070718;28;20036;-20
2021/11/03 02:34:56;;;;;;;77.07;22.60;;;;;;;8.24;86.22;99882.28;5070489;28;20040;-21
2021/11/03 02:37:27;;;;;;;65.20;20.38;;;;;;;7.79;88.08;99881.34;5070508;28;20067;-21
2021/11/03 02:39:56;;;;;;;100.45;21.98;;;;;;;8.25;86.91;99883.09;5070856;28;20884;-21
2021/11/03 02:42:22;;;;;;;56.28;23.13;;;;;;;8.19;86.12;99871.47;5070796;28;20028;-22
2021/11/03 02:44:48;;;;;;;84.57;24.00;;;;;;;8.34;86.66;99883.72;5036097;28;20593;-21
2021/11/03 02:47:14;;;;;;;72.10;20.63;;;;;;;8.38;85.49;99885.72;5036127;28;20029;-20
2021/11/03 02:49:39;;;;;;;50.10;20.52;;;;;;;8.35;84.93;99891.44;5071001;28;20040;-20
2021/11/03 02:52:11;;;;;;;74.50;21.67;;;;;;;8.37;85.98;99897.38;5069982;28;20551;-21
2021/11/03 02:54:36;;;;;;;72.30;21.55;;;;;;;8.24;85.63;99902.72;5070475;28;20142;-23
2021/11/03 02:57:03;;;;;;;107.95;25.10;;;;;;;8.54;85.69;99904.91;5070597;28;20087;-21
2021/11/03 02:59:28;;;;;;;72.22;20.88;;;;;;;8.48;84.43;99903.09;5070292;28;20155;-21
2021/11/03 03:01:56;;;;;;;114.13;22.92;;;;;;;8.42;84.22;99910.91;5069783;28;20029;-20
2021/11/03 03:04:26;;;;;;;69.22;21.55;;;;;;;8.55;84.61;99909.22;5052192;28;20043;-21
2021/11/03 03:06:52;;;;;;;110.32;23.45;;;;;;;8.69;83.87;99921.44;5070080;28;20028;-23
2021/11/03 03:09:17;;;;;;;154.20;25.95;;;;;;;8.48;84.68;99908.41;5070304;28;20059;-21
2021/11/03 03:11:46;;;;;;;57.10;20.27;;;;;;;8.09;84.83;99918.91;5069973;28;20021;-21
2021/11/03 03:14:12;;;;;;;79.50;22.13;;;;;;;8.24;85.40;99931.94;5069937;28;20036;-21
2021/11/03 03:16:37;;;;;;;93.07;21.60;;;;;;;8.08;86.07;99919.09;5051939;28;20032;-21
2021/11/03 03:19:03;;;;;;;49.55;19.27;;;;;;;8.12;84.67;99917.66;5069893;28;20056;-21
2021/11/03 03:21:29;;;;;;;48.88;17.73;;;;;;;7.53;87.04;99933.38;5051333;28;20150;-21
2021/11/03 03:23:55;;;;;;;62.78;19.30;;;;;;;7.64;87.84;99940.75;5051677;28;20029;-21
2021/11/03 03:26:21;;;;;;;56.47;18.73;;;;;;;7.84;86.88;99940.72;5069739;28;20035;-21
2021/11/03 03:28:47;;;;;;;59.05;18.83;;;;;;;7.71;86.91;99950.56;5069694;28;20062;-21
2021/11/03 03:31:13;;;;;;;49.03;20.50;;;;;;;7.67;86.59;99966.06;5052019;28;20028;-22
2021/11/03 03:33:39;;;;;;;68.28;21.30;;;;;;;7.74;86.87;99956.25;5069512;28;20031;-21
2021/11/03 03:36:04;;;;;;;62.40;22.63;;;;;;;7.71;86.72;99961.16;5069501;28;20032;-21
2021/11/03 03:38:30;;;;;;;60.78;21.90;;;;;;;7.19;89.30;99947.56;5069315;28;20416;-21
2021/11/03 03:40:55;;;;;;;45.22;19.17;;;;;;;7.30;90.10;99970.06;5069375;28;20048;-20
2021/11/03 03:43:21;;;;;;;53.22;19.42;;;;;;;7.61;88.98;99962.38;5069273;28;20145;-20
2021/11/03 03:45:46;;;;;;;68.10;19.08;;;;;;;7.90;86.32;99975.47;5068944;28;20806;-20
2021/11/03 03:48:12;;;;;;;64.45;19.73;;;;;;;7.60;87.11;99971.38;5069335;28;20044;-20
2021/11/03 03:50:37;;;;;;;108.00;21.65;;;;;;;7.77;87.14;99981.59;5069025;28;20043;-22
2021/11/03 03:53:03;;;;;;;52.80;19.70;;;;;;;7.23;88.82;99978.81;5069176;28;20028;-21
2021/11/03 03:55:28;;;;;;;86.60;21.67;;;;;;;7.49;89.42;99979.91;5051342;28;20077;-21
2021/11/03 03:57:54;;;;;;;99.88;22.33;;;;;;;7.79;87.43;99979.56;5068743;28;20051;-21
2021/11/03 04:00:20;;;;;;;73.70;20.08;;;;;;;7.99;85.02;99977.72;5068792;28;20063;-21
2021/11/03 04:02:46;;;;;;;49.92;18.83;;;;;;;7.83;84.68;99976.28;5068799;28;20032;-20
2021/11/03 04:05:11;;;;;;;65.40;18.13;;;;;;;7.17;87.41;99966.34;5068689;28;20036;-21
2021/11/03 04:07:37;;;;;;;71.38;19.02;;;;;;;7.40;87.25;99976.63;5068727;28;20032;-21
2021/11/03 04:10:03;;;;;;;117.82;23.80;;;;;;;7.79;86.25;99975.06;5068553;28;20041;-20
2021/11/03 04:12:29;;;;;;;57.45;19.33;;;;;;;7.16;87.24;99970.00;5050846;28;20071;-21
2021/11/03 04:14:54;;;;;;;60.50;17.70;;;;;;;6.73;89.17;99969.44;5068607;28;20475;-21
2021/11/03 04:17:20;;;;;;;131.27;29.00;;;;;;;7.28;88.34;99967.59;5068887;28;20036;-20
2021/11/03 04:19:45;;;;;;;61.67;19.63;;;;;;;7.64;85.53;99955.84;5068632;28;20032;-21
2021/11/03 04:22:11;;;;;;;59.83;19.30;;;;;;;7.50;85.77;99970.94;5068633;28;20454;-20
2021/11/03 04:24:36;;;;;;;67.68;20.67;;;;;;;7.64;85.27;99972.59;5068530;28;20039;-20
2021/11/03 04:27:02;;;;;;;57.50;17.17;;;;;;;7.41;85.09;99977.44;5068505;28;20028;-21
2021/11/03 04:29:27;;;;;;;105.50;20.73;;;;;;;7.27;85.88;99981.06;5068564;28;20123;-22
2021/11/03 04:31:53;;;;;;;47.72;18.00;;;;;;;6.99;86.84;99976.69;5068732;28;20031;-20
2021/11/03 04:34:19;;;;;;;42.42;17.58;;;;;;;6.99;86.99;99979.34;5067537;28;20495;-21
2021/11/03 04:36:44;;;;;;;73.55;19.92;;;;;;;7.05;86.92;99975.91;5068283;28;20024;-21
2021/11/03 04:39:10;;;;;;;80.85;20.77;;;;;;;6.96;86.90;99971.78;5068626;28;20412;-20
2021/11/03 04:41:36;;;;;;;92.07;21.33;;;;;;;7.03;87.90;99985.88;5068426;28;20060;-21
2021/11/03 04:44:02;;;;;;;108.13;23.02;;;;;;;7.50;86.73;99997.47;5068186;28;20092;-21
2021/11/03 04:46:28;;;;;;;60.75;20.75;;;;;;;7.49;85.22;99979.91;5068482;28;20484;-20
2021/11/03 04:48:53;;;;;;;62.65;21.05;;;;;;;7.63;85.42;99976.25;5067335;28;20086;-20
2021/11/03 04:51:19;;;;;;;78.47;20.23;;;;;;;7.49;86.02;99990.50;5068665;28;20039;-21
2021/11/03 04:53:45;;;;;;;68.93;19.60;;;;;;;7.78;85.11;100015.06;5067908;28;20389;-20
2021/11/03 04:56:13;;;;;;;102.50;22.98;;;;;;;7.67;84.96;100007.72;5068375;28;20527;-21
2021/11/03 04:58:38;;;;;;;;;;;;;;;7.74;84.55;100019.97;5050786;28;20035;-21
2021/11/03 05:01:04;;;;;;;81.80;19.77;;;;;;;7.75;84.23;99991.59;5068443;28;19995;-20
2021/11/03 05:03:29;;;;;;;120.43;21.20;;;;;;;7.87;84.15;100028.97;5067958;28;20039;-21
2021/11/03 05:05:56;;;;;;;75.45;20.92;;;;;;;7.33;86.36;100034.13;5067813;28;20036;-20
2021/11/03 05:08:22;;;;;;;98.53;22.65;;;;;;;7.30;87.54;100044.34;5068137;28;20036;-21
2021/11/03 05:10:47;;;;;;;146.05;24.88;;;;;;;7.42;87.31;100037.44;5068237;28;20028;-20
2021/11/03 05:13:13;;;;;;;102.63;23.40;;;;;;;7.37;85.49;100051.28;5067870;28;20043;-22
2021/11/03 05:15:38;;;;;;;61.80;20.40;;;;;;;7.53;85.39;100055.44;5068385;28;20648;-21
2021/11/03 05:18:04;;;;;;;93.95;23.40;;;;;;;7.74;84.77;100053.66;5067639;28;20035;-20
2021/11/03 05:20:29;;;;;;;60.00;20.63;;;;;;;7.58;84.37;100050.38;5068363;28;20036;-21
2021/11/03 05:22:55;;;;;;;44.55;16.90;;;;;;;7.67;84.00;100053.66;5068498;28;20040;-21
2021/11/03 05:25:24;;;;;;;58.45;18.83;;;;;;;7.93;83.34;100063.53;5067838;28;20432;-21
2021/11/03 05:27:49;;;;;;;49.53;19.45;;;;;;;8.00;83.93;100067.00;5067547;28;20033;-20
2021/11/03 05:30:15;;;;;;;48.83;18.23;;;;;;;7.78;85.29;100065.50;5067926;28;20040;-21
2021/11/03 05:32:40;;;;;;;46.95;17.85;;;;;;;7.85;83.59;100069.03;5067778;28;20036;-21
2021/11/03 05:35:06;;;;;;;45.15;18.02;;;;;;;8.04;83.05;100073.53;5067674;28;20071;-21
2021/11/03 05:37:31;;;;;;;42.97;16.95;;;;;;;7.73;83.60;100066.13;5067842;28;20078;-21
2021/11/03 05:39:57;;;;;;;42.10;19.30;;;;;;;7.77;83.21;100070.00;5027660;28;20045;-20
2021/11/03 05:42:22;;;;;;;38.80;19.27;;;;;;;7.84;83.26;100060.22;5027761;28;20037;-20
2021/11/03 05:44:48;;;;;;;51.13;19.77;;;;;;;8.04;83.56;100078.03;5028495;28;20060;-21
2021/11/03 05:47:21;;;;;;;59.53;22.70;;;;;;;8.32;82.41;100083.19;5030395;28;20100;-20
2021/11/03 05:49:46;;;;;;;39.90;20.17;;;;;;;7.56;84.85;100086.91;5030221;28;20037;-20
2021/11/03 05:52:12;;;;;;;38.33;15.68;;;;;;;7.45;85.45;100079.50;5031648;28;20413;-20
2021/11/03 05:54:37;;;;;;;42.20;16.50;;;;;;;8.21;83.16;100099.72;5031567;28;20163;-21
2021/11/03 05:57:03;;;;;;;37.88;16.55;;;;;;;8.38;82.94;100103.63;5031206;28;20490;-20
2021/11/03 05:59:29;;;;;;;78.93;19.85;;;;;;;8.42;83.10;100112.03;5031325;28;20026;-21
2021/11/03 06:01:56;;;;;;;44.60;18.30;;;;;;;8.26;83.56;100113.22;5031035;28;20123;-21
2021/11/03 06:04:21;;;;;;;42.17;17.98;;;;;;;8.32;83.85;100103.63;5031258;28;20464;-21
2021/11/03 06:06:47;;;;;;;43.30;21.17;;;;;;;8.57;82.90;100120.63;5029920;28;20057;-21
2021/11/03 06:09:14;;;;;;;50.42;20.67;;;;;;;8.72;82.67;100124.91;5030079;28;20080;-21
2021/11/03 06:11:41;;;;;;;41.67;19.63;;;;;;;8.77;82.64;100131.25;5031298;28;20067;-21
2021/11/03 06:14:07;;;;;;;42.28;18.48;;;;;;;8.76;82.72;100129.63;5031182;28;20037;-20
2021/11/03 06:16:32;;;;;;;50.45;19.40;;;;;;;8.57;85.04;100133.91;5031367;28;20136;-21
2021/11/03 06:18:58;;;;;;;37.20;17.67;;;;;;;8.76;84.68;100134.13;5029836;28;20051;-20
2021/11/03 06:21:23;;;;;;;31.20;17.45;;;;;;;8.85;83.71;100144.34;5031689;28;20546;-20
2021/11/03 06:23:49;;;;;;;54.13;21.77;;;;;;;8.67;85.27;100141.50;5029904;28;20444;-21
2021/11/03 06:26:15;;;;;;;43.42;20.67;;;;;;;8.74;85.82;100136.97;5030988;28;20036;-20
2021/11/03 06:28:41;;;;;;;46.38;21.85;;;;;;;8.67;86.86;100146.81;5031172;28;20164;-20
2021/11/03 06:31:07;;;;;;;41.90;20.00;;;;;;;8.99;86.27;100161.13;5029412;28;20476;-21
2021/11/03 06:33:33;;;;;;;45.05;20.52;;;;;;;9.25;83.97;100160.28;5030954;28;20030;-20
2021/11/03 06:35:59;;;;;;;62.90;21.30;;;;;;;9.46;83.85;100169.03;5030645;28;20029;-20
2021/11/03 06:38:25;;;;;;;48.63;20.05;;;;;;;9.41;83.74;100163.50;5036476;28;20056;-20
2021/11/03 06:40:51;;;;;;;50.92;21.70;;;;;;;9.72;83.20;100193.94;5050724;28;20041;-20
2021/11/03 06:43:17;;;;;;;56.03;22.95;;;;;;;9.83;83.60;100188.78;5050460;28;20068;-21
2021/11/03 06:45:43;;;;;;;45.72;20.05;;;;;;;9.93;82.74;100203.47;5050104;28;20087;-20
2021/11/03 06:48:08;;;;;;;41.38;20.23;;;;;;;10.05;82.96;100213.28;5049408;28;20025;-20
2021/11/03 06:50:35;;;;;;;48.35;21.77;;;;;;;9.36;86.02;100189.94;5050547;28;20053;-20
2021/11/03 06:53:02;;;;;;;46.45;19.48;;;;;;;9.70;84.81;100206.63;5050215;28;20082;-20
2021/11/03 06:55:28;;;;;;;43.30;20.48;;;;;;;9.88;83.27;100213.97;5050254;28;20405;-20
2021/11/03 06:57:58;;;;;;;58.22;22.70;;;;;;;9.67;85.46;100209.75;5048268;28;20029;-21
2021/11/03 07:00:28;;;;;;;48.78;21.55;;;;;;;9.61;85.33;100196.22;5050270;28;20029;-21
2021/11/03 07:02:54;;;;;;;51.35;20.23;;;;;;;9.65;85.07;100186.78;5050024;28;20087;-20
2021/11/03 07:05:19;;;;;;;51.58;21.23;;;;;;;9.47;86.21;100178.63;5050182;28;20059;-20
2021/11/03 07:07:45;;;;;;;57.45;24.45;;;;;;;9.62;85.80;100200.53;5050009;28;20036;-20
2021/11/03 07:10:15;;;;;;;64.50;28.58;;;;;;;9.54;88.09;100207.91;5050073;28;20035;-20
2021/11/03 07:12:41;;;;;;;53.58;24.90;;;;;;;9.92;85.72;100213.31;5048860;28;20069;-20
2021/11/03 07:15:07;;;;;;;53.53;23.75;;;;;;;9.91;85.61;100219.69;5049910;28;20406;-20
2021/11/03 07:17:32;;;;;;;53.65;25.02;;;;;;;10.08;84.19;100221.88;5049844;28;20052;-20
2021/11/03 07:19:57;;;;;;;70.53;22.23;;;;;;;10.31;82.45;100210.72;5049637;28;20029;-20
2021/11/03 07:22:23;;;;;;;51.28;21.08;;;;;;;10.03;83.47;100217.16;5049871;28;20044;-20
2021/11/03 07:24:48;;;;;;;72.93;22.63;;;;;;;10.29;82.59;100207.41;5049754;28;20037;-22
2021/11/03 07:27:14;;;;;;;60.72;24.98;;;;;;;10.15;85.23;100201.34;5050142;28;20037;-20
2021/11/03 07:29:40;;;;;;;68.32;24.77;;;;;;;10.51;82.83;100215.94;5049825;28;20040;-21
2021/11/03 07:32:06;;;;;;;51.00;24.48;;;;;;;10.33;84.35;100214.81;5049490;28;20485;-21
2021/11/03 07:34:31;;;;;;;50.38;26.08;;;;;;;9.92;85.50;100208.00;5049707;28;20108;-20
2021/11/03 07:36:57;;;;;;;53.58;25.02;;;;;;;9.95;86.41;100202.25;5049730;28;20496;-20
2021/11/03 07:39:22;;;;;;;60.22;28.08;;;;;;;10.11;84.51;100192.13;5064592;28;20052;-20
2021/11/03 07:41:48;;;;;;;66.38;29.10;;;;;;;10.35;84.55;100210.06;5069077;28;20032;-20
2021/11/03 07:44:16;;;;;;;62.63;27.88;;;;;;;9.94;86.09;100205.13;5069365;28;20028;-20
2021/11/03 07:46:41;;;;;;;60.10;28.90;;;;;;;9.79;89.52;100206.22;5069275;28;20036;-20
2021/11/03 07:49:07;;;;;;;73.70;35.75;;;;;;;10.15;86.83;100204.00;5069146;28;20413;-20
2021/11/03 07:51:32;;;;;;;60.58;30.63;;;;;;;10.00;86.31;100214.94;5069092;28;20511;-21
2021/11/03 07:54:01;;;;;;;60.08;29.60;;;;;;;9.84;87.17;100216.22;5069060;28;20039;-20
2021/11/03 07:56:28;;;;;;;59.15;30.98;;;;;;;10.33;86.01;100212.13;5068964;28;20047;-20
2021/11/03 07:58:54;;;;;;;81.68;31.55;;;;;;;10.62;83.77;100212.56;5051396;28;20044;-20
2021/11/03 08:01:19;;;;;;;62.42;30.42;;;;;;;10.67;84.90;100210.09;5068887;28;20503;-20
2021/11/03 08:03:45;;;;;;;61.72;29.77;;;;;;;10.48;86.64;100201.16;5068709;28;20107;-20
2021/11/03 08:06:11;;;;;;;84.57;36.42;;;;;;;10.95;83.61;100193.69;5069093;28;20031;-20
2021/11/03 08:08:43;;;;;;;99.07;47.97;;;;;;;10.91;83.26;100195.16;5068108;28;20033;-20
2021/11/03 08:11:09;;;;;;;72.53;37.15;;;;;;;10.64;85.97;100208.69;5068653;28;20825;-21
2021/11/03 08:13:36;;;;;;;83.22;42.22;;;;;;;10.80;83.70;100217.19;5068542;28;20028;-20
2021/11/03 08:16:03;;;;;;;72.70;36.58;;;;;;;11.16;83.84;100200.47;5068640;28;20035;-20
2021/11/03 08:18:31;;;;;;;69.88;33.33;;;;;;;11.86;80.42;100207.34;5034545;28;20082;-20
2021/11/03 08:20:56;;;;;;;69.10;33.63;;;;;;;12.44;77.90;100222.88;5068586;28;20025;-21
2021/11/03 08:23:22;;;;;;;67.30;34.65;;;;;;;12.57;78.62;100229.09;5068838;28;20079;-21
2021/11/03 08:25:47;;;;;;;75.88;38.75;;;;;;;12.41;81.51;100201.94;5068426;28;20502;-20
2021/11/03 08:28:13;;;;;;;76.07;37.15;;;;;;;12.78;79.92;100235.78;5068620;28;20033;-20
2021/11/03 08:30:46;;;;;;;71.50;36.10;;;;;;;12.88;79.12;100229.88;5068538;28;20028;-20
2021/11/03 08:33:33;;;;;;;72.05;37.80;;;;;;;13.51;77.33;100223.88;5050408;28;20062;-21
2021/11/03 08:35:59;;;;;;;59.90;32.75;;;;;;;13.01;79.63;100229.63;5068102;28;20120;-20
2021/11/03 08:38:24;;;;;;;54.60;29.73;;;;;;;13.16;76.17;100237.25;5033581;28;20048;-19
2021/11/03 08:40:50;;;;;;;55.78;32.03;;;;;;;12.94;76.25;100234.28;5050500;28;20025;-20
2021/11/03 08:43:21;;;;;;;45.00;28.27;;;;;;;13.36;76.27;100242.28;5068345;28;20032;-20
2021/11/03 08:45:47;;;;;;;49.42;28.42;;;;;;;13.91;73.34;100247.22;5068153;28;20502;-19
2021/11/03 08:48:12;;;;;;;53.42;27.60;;;;;;;13.42;77.92;100252.06;5068467;28;20036;-21
2021/11/03 08:50:39;;;;;;;49.45;28.08;;;;;;;13.18;78.62;100246.66;5068245;28;20036;-20
2021/11/03 08:53:05;;;;;;;46.95;27.10;;;;;;;13.72;75.48;100251.94;5068273;28;20064;-21
2021/11/03 08:55:31;;;;;;;49.45;28.15;;;;;;;13.69;74.85;100251.56;5068328;28;20503;-20
2021/11/03 08:57:57;;;;;;;48.47;26.67;;;;;;;13.57;75.85;100233.66;5067935;28;20032;-20
2021/11/03 09:00:25;;;;;;;48.30;28.40;;;;;;;13.68;74.97;100236.56;5068051;28;20114;-20
2021/11/03 09:02:52;;;;;;;51.17;28.00;;;;;;;13.64;75.80;100237.00;5068083;28;20032;-20
2021/11/03 09:05:18;;;;;;;41.92;24.65;;;;;;;13.79;74.70;100243.75;5068002;28;20060;-20
2021/11/03 09:07:43;;;;;;;39.63;23.17;;;;;;;13.75;74.09;100219.31;5067921;28;20035;-21
2021/11/03 09:10:17;;;;;;;43.33;25.15;;;;;;;13.63;76.59;100232.72;5068351;28;20476;-21
2021/11/03 09:12:45;;;;;;;47.90;26.17;;;;;;;13.59;77.14;100215.47;5051421;28;20121;-20
2021/11/03 09:15:10;;;;;;;60.08;32.25;;;;;;;14.07;76.85;100208.94;5067836;28;20122;-20
2021/11/03 09:17:36;;;;;;;41.95;24.52;;;;;;;14.50;74.47;100228.25;5068542;28;20392;-21
2021/11/03 09:20:01;;;;;;;38.28;22.95;;;;;;;14.83;71.33;100214.13;5069010;28;20111;-20
2021/11/03 09:22:27;;;;;;;38.85;23.27;;;;;;;15.24;70.86;100236.25;5072134;28;20032;-20
2021/11/03 09:24:52;;;;;;;39.50;25.23;;;;;;;15.06;72.01;100233.81;5072043;28;20031;-20
2021/11/03 09:27:18;;;;;;;47.20;26.75;;;;;;;14.47;73.46;100201.91;5072174;28;20032;-21
2021/11/03 09:29:45;;;;;;;40.05;24.13;;;;;;;14.86;73.48;100224.34;5072077;28;20032;-20
2021/11/03 09:32:14;;;;;;;32.25;20.08;;;;;;;15.20;71.54;100210.94;5071980;28;20062;-19
2021/11/03 09:34:44;;;;;;;33.35;18.52;;;;;;;14.94;72.36;100214.28;5071933;28;20024;-21
2021/11/03 09:37:10;;;;;;;36.72;21.65;;;;;;;14.57;76.06;100209.38;5053945;28;20036;-21
2021/11/03 09:39:36;;;;;;;38.08;22.00;;;;;;;15.16;74.17;100196.38;5071389;28;20048;-21
2021/11/03 09:42:01;;;;;;;43.55;25.50;;;;;;;15.74;71.52;100185.34;5071476;28;20036;-20
2021/11/03 09:44:29;;;;;;;59.72;35.67;;;;;;;15.88;72.55;100196.56;5053891;28;20107;-25
2021/11/03 09:46:58;;;;;;;52.50;31.30;;;;;;;16.11;71.24;100195.47;5053559;28;20029;-21
2021/11/03 09:49:37;;;;;;;32.30;18.95;;;;;;;16.20;70.15;100200.16;5071661;28;20060;-20
2021/11/03 09:52:32;;;;;;;26.80;16.98;;;;;;;16.16;71.63;100182.88;5036973;28;20177;-20
2021/11/03 09:55:07;;;;;;;24.27;15.93;;;;;;;16.01;72.71;100193.47;5071391;28;20107;-21
2021/11/03 09:57:56;;;;;;;25.42;15.45;;;;;;;16.12;72.36;100202.47;5053440;28;20020;-21
2021/11/03 10:00:37;;;;;;;25.67;16.25;;;;;;;16.27;71.53;100205.31;5071299;28;20020;-20
2021/11/03 10:03:15;;;;;;;26.80;15.52;;;;;;;17.07;69.84;100209.03;5053624;28;20067;-20
2021/11/03 10:05:59;;;;;;;24.13;15.68;;;;;;;17.18;68.56;100204.53;5071407;28;20036;-20
2021/11/03 10:08:27;;;;;;;28.65;18.52;;;;;;;16.92;68.93;100205.41;5037790;28;20114;-21
2021/11/03 10:11:02;;;;;;;22.75;15.23;;;;;;;17.00;68.22;100203.06;5053335;28;20037;-20
2021/11/03 10:13:30;;;;;;;26.27;16.88;;;;;;;16.98;67.48;100194.41;5071272;28;20047;-20
2021/11/03 10:16:11;;;;;;;21.23;13.40;;;;;;;17.15;69.15;100196.97;5070944;28;20822;-20
2021/11/03 10:18:39;;;;;;;21.00;13.63;;;;;;;17.14;67.76;100181.88;5070884;28;20036;-20
2021/11/03 10:21:25;;;;;;;26.92;15.85;;;;;;;17.37;68.47;100169.06;5053218;28;20052;-19
2021/11/03 10:24:09;;;;;;;21.80;13.73;;;;;;;17.70;65.49;100183.25;5071062;28;20115;-20
2021/11/03 10:27:01;;;;;;;19.48;13.35;;;;;;;18.33;65.55;100180.47;5071015;28;20036;-19
2021/11/03 10:29:35;;;;;;;28.30;16.15;;;;;;;18.25;64.26;100173.75;5071052;28;20024;-19
2021/11/03 10:32:08;;;;;;;13.88;9.38;;;;;;;17.90;64.30;100171.75;5069355;28;20496;-20
2021/11/03 10:34:33;;;;;;;19.73;12.27;;;;;;;18.48;60.01;100170.53;5053696;28;20024;-20
2021/11/03 10:37:05;;;;;;;27.60;16.25;;;;;;;18.60;60.68;100158.66;5070764;28;20118;-19
2021/11/03 10:39:50;;;;;;;10.93;6.88;;;;;;;18.49;60.48;100155.16;5070622;28;20048;-19
2021/11/03 10:42:41;;;;;;;26.55;14.77;;;;;;;18.07;61.84;100135.38;5070479;28;20033;-19
2021/11/03 10:45:15;;;;;;;9.77;6.22;;;;;;;18.24;60.26;100142.41;5070435;28;20028;-19
2021/11/03 10:47:47;;;;;;;16.40;10.05;;;;;;;18.13;60.33;100127.28;5070639;28;20028;-23
2021/11/03 10:50:33;;;;;;;22.65;13.55;;;;;;;18.46;61.20;100137.56;5070532;28;20040;-21
2021/11/03 10:53:02;;;;;;;12.75;7.82;;;;;;;18.35;60.70;100125.16;5070706;28;20086;-20
2021/11/03 10:55:39;;;;;;;13.13;9.13;;;;;;;18.73;60.83;100103.28;5070316;28;20048;-19
2021/11/03 10:58:11;;;;;;;11.40;7.33;;;;;;;19.35;60.64;100117.47;5037100;28;20035;-20
2021/11/03 11:00:38;;;;;;;12.32;8.32;;;;;;;19.48;59.77;100108.78;5070093;28;20400;-20
2021/11/03 11:03:18;;;;;;;10.88;6.25;;;;;;;19.22;60.58;100119.66;5070218;28;20039;-20
2021/11/03 11:05:48;;;;;;;13.85;8.75;;;;;;;19.86;59.15;100098.34;5052016;28;20063;-20
2021/11/03 11:08:23;;;;;;;13.38;7.88;;;;;;;20.14;57.28;100114.94;5070169;28;20119;-19
2021/11/03 11:10:52;;;;;;;12.85;8.68;;;;;;;19.86;55.93;100096.44;5052258;28;20037;-20
2021/11/03 11:13:20;;;;;;;12.95;8.40;;;;;;;19.82;57.17;100097.28;5052319;28;20028;-19
2021/11/03 11:16:12;;;;;;;11.73;6.57;;;;;;;20.21;56.18;100093.78;5052020;28;20067;-20
2021/11/03 11:18:56;;;;;;;9.43;6.20;;;;;;;20.29;56.96;100090.47;5069964;28;20028;-19